Time;durP1;ratioP1;P1;durP2;ratioP2;P2;SDS_P1;SDS_P2;PMS_P1;PMS_P2;Temp;Humidity;BMP_temperature;BMP_pressure;BME280_temperature;BME280_humidity;BME280_pressure;Samples;Min_cycle;Max_cycle;Signal;HPM_P1;HPM_P2
2023/01/26 00:01:20;;;;;;;8.40;5.32;;;31.40;99.90;;;;;;5064135;28;20094;-66
2023/01/26 00:03:47;;;;;;;6.43;4.82;;;31.50;99.90;;;;;;5064018;28;20025;-66
2023/01/26 00:06:16;;;;;;;6.45;4.80;;;31.60;99.60;;;;;;5063316;28;20054;-63
2023/01/26 00:08:49;;;;;;;8.00;5.80;;;31.70;98.90;;;;;;5061728;28;20020;-63
2023/01/26 00:11:19;;;;;;;7.10;5.03;;;31.60;99.30;;;;;;5061132;28;20036;-64
2023/01/26 00:13:48;;;;;;;8.73;5.63;;;32.10;99.00;;;;;;5062249;28;20083;-65
2023/01/26 00:16:15;;;;;;;5.95;4.95;;;32.10;99.10;;;;;;5064538;28;20032;-66
2023/01/26 00:18:43;;;;;;;5.97;5.10;;;32.10;99.10;;;;;;5061399;28;20035;-64
2023/01/26 00:21:17;;;;;;;5.30;4.63;;;32.40;98.30;;;;;;5063248;28;20101;-66
2023/01/26 00:23:44;;;;;;;6.68;4.90;;;32.40;96.90;;;;;;5061598;28;20397;-64
2023/01/26 00:26:15;;;;;;;5.03;4.50;;;32.30;97.30;;;;;;5065234;28;20052;-64
2023/01/26 00:28:42;;;;;;;4.72;4.20;;;32.40;96.60;;;;;;5064271;28;20103;-63
2023/01/26 00:31:18;;;;;;;92.00;55.35;;;32.50;96.20;;;;;;5064476;28;20028;-65
2023/01/26 00:33:45;;;;;;;9.77;7.18;;;32.70;96.00;;;;;;5064786;28;20103;-66
2023/01/26 00:36:14;;;;;;;13.40;9.40;;;32.70;96.10;;;;;;5065695;28;20043;-64
2023/01/26 00:38:41;;;;;;;4.97;4.13;;;33.10;95.80;;;;;;5063181;28;20512;-65
2023/01/26 00:41:08;;;;;;;6.93;4.85;;;33.20;93.00;;;;;;5060314;28;20035;-64
2023/01/26 00:43:35;;;;;;;8.65;5.20;;;33.30;94.80;;;;;;5061473;28;20040;-62
2023/01/26 00:46:02;;;;;;;5.38;4.47;;;33.60;94.70;;;;;;5064736;28;20024;-66
2023/01/26 00:48:29;;;;;;;6.88;4.80;;;34.00;95.60;;;;;;5063478;28;20177;-63
2023/01/26 00:50:56;;;;;;;6.07;5.03;;;34.40;93.00;;;;;;5062803;28;20431;-66
2023/01/26 00:53:23;;;;;;;7.32;5.25;;;34.30;94.00;;;;;;5068516;28;20092;-66
2023/01/26 00:55:52;;;;;;;5.40;4.45;;;34.70;94.10;;;;;;5066159;28;20032;-65
2023/01/26 00:58:19;;;;;;;6.15;4.97;;;34.90;95.00;;;;;;5066283;28;20020;-64
2023/01/26 01:00:45;;;;;;;5.65;4.03;;;35.00;93.40;;;;;;5057090;28;20027;-62
2023/01/26 01:03:12;;;;;;;8.80;4.93;;;35.10;93.10;;;;;;5067906;28;20055;-64
2023/01/26 01:05:39;;;;;;;7.20;5.22;;;35.40;93.00;;;;;;5066555;28;20089;-62
2023/01/26 01:08:06;;;;;;;5.28;4.47;;;35.30;93.30;;;;;;5066718;28;20029;-62
2023/01/26 01:10:33;;;;;;;5.07;4.57;;;35.40;93.00;;;;;;5067051;28;20458;-64
2023/01/26 01:13:00;;;;;;;5.82;4.57;;;35.70;92.00;;;;;;5067454;28;20028;-64
2023/01/26 01:15:27;;;;;;;4.43;4.03;;;36.00;91.70;;;;;;5067853;28;20016;-62
2023/01/26 01:17:54;;;;;;;8.95;4.75;;;36.30;90.00;;;;;;5066703;28;20483;-63
2023/01/26 01:20:21;;;;;;;6.38;5.47;;;35.90;91.00;;;;;;5064532;28;20097;-64
2023/01/26 01:22:50;;;;;;;5.30;4.00;;;35.60;91.20;;;;;;5067160;28;20024;-62
2023/01/26 01:25:16;;;;;;;5.57;3.83;;;35.70;89.50;;;;;;5067063;28;20033;-62
2023/01/26 01:27:46;;;;;;;4.32;3.92;;;35.90;88.70;;;;;;5059807;28;20032;-62
2023/01/26 01:30:14;;;;;;;4.22;3.78;;;35.90;89.10;;;;;;5067593;28;20051;-65
2023/01/26 01:32:40;;;;;;;7.07;5.07;;;36.20;86.10;;;;;;5067229;28;20021;-61
2023/01/26 01:35:08;;;;;;;6.35;4.63;;;36.40;90.40;;;;;;5067556;28;20066;-64
2023/01/26 01:37:35;;;;;;;5.85;4.97;;;36.60;90.20;;;;;;5066207;28;20035;-63
2023/01/26 01:40:02;;;;;;;7.03;4.80;;;37.10;90.10;;;;;;5067655;28;20484;-63
2023/01/26 01:42:29;;;;;;;4.30;3.90;;;37.70;89.60;;;;;;5065321;28;20043;-64
2023/01/26 01:45:27;;;;;;;4.25;3.75;;;37.50;83.60;;;;;;5058498;28;20819;-63
2023/01/26 01:48:01;;;;;;;3.65;3.10;;;37.80;85.00;;;;;;5063974;28;20119;-62
2023/01/26 01:50:30;;;;;;;6.57;3.22;;;37.90;85.20;;;;;;5064539;28;20047;-61
2023/01/26 01:52:57;;;;;;;5.35;4.50;;;38.20;84.20;;;;;;5065430;28;20028;-62
2023/01/26 01:55:24;;;;;;;4.32;3.65;;;38.50;82.10;;;;;;5063049;28;20020;-62
2023/01/26 01:58:00;;;;;;;4.78;3.53;;;38.70;84.50;;;;;;5057574;28;20071;-62
2023/01/26 02:00:28;;;;;;;3.90;3.38;;;38.90;80.50;;;;;;5064526;28;20025;-61
2023/01/26 02:03:12;;;;;;;6.22;3.55;;;39.00;80.10;;;;;;5063818;28;20040;-61
2023/01/26 02:05:46;;;;;;;5.03;3.88;;;39.20;78.30;;;;;;5063359;28;20148;-62
2023/01/26 02:08:16;;;;;;;4.72;3.00;;;39.20;79.50;;;;;;5062928;28;20504;-63
2023/01/26 02:10:47;;;;;;;3.90;2.03;;;38.90;73.20;;;;;;5064791;28;20013;-63
2023/01/26 02:13:17;;;;;;;3.40;1.80;;;38.90;72.30;;;;;;5065874;28;20508;-64
2023/01/26 02:15:44;;;;;;;4.57;2.33;;;38.80;68.00;;;;;;5061686;28;20662;-62
2023/01/26 02:18:11;;;;;;;1.95;1.58;;;39.10;69.30;;;;;;4363463;28;10000843;-62
2023/01/26 02:20:59;;;;;;;2.03;1.40;;;39.00;66.70;;;;;;5060637;28;20135;-61
2023/01/26 02:24:00;;;;;;;3.38;2.00;;;39.10;68.50;;;;;;5053085;28;20107;-62
2023/01/26 02:26:31;;;;;;;3.35;1.90;;;39.30;69.10;;;;;;4939846;28;20048;-62
2023/01/26 02:28:59;;;;;;;4.32;2.30;;;39.80;66.20;;;;;;4933686;28;20039;-63
2023/01/26 02:31:27;;;;;;;3.17;2.25;;;39.90;65.70;;;;;;4939454;28;20043;-63
2023/01/26 02:33:54;;;;;;;2.35;1.92;;;39.70;68.00;;;;;;4944142;28;20027;-62
2023/01/26 02:36:24;;;;;;;3.80;1.90;;;39.50;68.20;;;;;;4953186;28;20566;-63
2023/01/26 02:39:17;;;;;;;2.13;1.58;;;39.30;65.80;;;;;;4945616;28;20035;-63
2023/01/26 02:44:31;;;;;;;4.43;1.77;;;38.60;64.50;;;;;;4943489;28;20611;-63
2023/01/26 02:46:58;;;;;;;2.28;1.73;;;39.00;67.50;;;;;;4942783;28;20098;-61
2023/01/26 02:52:10;;;;;;;2.28;1.27;;;39.80;67.10;;;;;;4942990;28;20588;-63
2023/01/26 02:57:22;;;;;;;2.35;1.48;;;40.60;62.60;;;;;;4942719;28;20093;-63
2023/01/26 02:59:49;;;;;;;2.80;1.88;;;40.80;61.10;;;;;;4942640;28;20034;-63
2023/01/26 03:02:16;;;;;;;3.22;1.98;;;40.40;65.50;;;;;;4944416;28;20150;-63
2023/01/26 03:04:43;;;;;;;2.92;1.60;;;40.30;64.10;;;;;;5052861;28;20044;-62
2023/01/26 03:07:10;;;;;;;2.85;1.30;;;40.30;64.00;;;;;;5055835;28;20480;-64
2023/01/26 03:09:37;;;;;;;2.38;1.60;;;40.40;63.40;;;;;;5057968;28;20485;-63
2023/01/26 03:12:04;;;;;;;2.15;1.60;;;40.40;62.00;;;;;;5059574;28;20020;-62
2023/01/26 03:14:31;;;;;;;2.33;1.50;;;40.20;61.00;;;;;;5051103;28;20523;-63
2023/01/26 03:16:58;;;;;;;1.45;1.35;;;40.40;60.90;;;;;;5057674;28;20021;-63
2023/01/26 03:27:44;;;;;;;3.08;1.60;;;40.00;62.00;;;;;;5059543;28;20042;-63
2023/01/26 03:30:15;;;;;;;3.22;1.95;;;39.00;62.10;;;;;;5039809;28;20510;-65
2023/01/26 03:32:42;;;;;;;5.47;1.53;;;38.20;63.10;;;;;;5055487;28;20028;-64
2023/01/26 03:35:13;;;;;;;3.08;1.60;;;37.80;63.80;;;;;;5056991;28;21680;-63
2023/01/26 03:37:44;;;;;;;2.60;1.50;;;37.30;63.70;;;;;;5060844;28;20481;-64
2023/01/26 03:56:43;;;;;;;2.15;1.50;;;35.10;64.40;;;;;;5055441;28;20047;-64
2023/01/26 03:59:13;;;;;;;2.05;1.40;;;34.70;72.20;;;;;;5060409;28;20032;-64
2023/01/26 04:10:02;;;;;;;5.05;3.10;;;32.90;91.50;;;;;;5057752;28;20054;-66
2023/01/26 04:12:29;;;;;;;4.93;2.72;;;32.40;92.10;;;;;;5050207;28;20705;-65
2023/01/26 04:23:21;;;;;;;6.88;3.00;;;31.30;90.60;;;;;;5054802;28;20031;-65
2023/01/26 04:25:48;;;;;;;6.38;2.97;;;31.20;97.70;;;;;;5051632;28;20426;-65
2023/01/26 04:28:15;;;;;;;6.55;3.13;;;30.90;99.90;;;;;;5055906;28;20021;-68
2023/01/26 04:30:42;;;;;;;4.63;2.63;;;30.60;99.90;;;;;;5056832;28;20031;-65
2023/01/26 04:33:09;;;;;;;7.75;3.15;;;30.30;99.90;;;;;;5063315;28;20106;-67
2023/01/26 04:35:36;;;;;;;9.10;3.55;;;30.10;99.90;;;;;;5062272;28;20060;-66
2023/01/26 04:38:03;;;;;;;9.25;4.03;;;30.00;99.90;;;;;;5059500;28;20050;-70
2023/01/26 04:40:30;;;;;;;7.68;4.10;;;29.40;99.90;;;;;;5061828;28;20086;-67
2023/01/26 04:42:57;;;;;;;7.55;3.53;;;29.10;99.90;;;;;;5060875;28;20554;-68
2023/01/26 04:45:24;;;;;;;7.75;3.83;;;29.10;99.90;;;;;;5063186;28;20020;-65
2023/01/26 04:47:50;;;;;;;8.05;3.50;;;29.40;99.90;;;;;;5060693;28;20016;-65
2023/01/26 04:50:17;;;;;;;5.55;3.60;;;30.00;99.90;;;;;;5060637;28;20021;-66
2023/01/26 04:52:44;;;;;;;5.68;3.15;;;30.70;99.90;;;;;;5060867;28;20108;-65
2023/01/26 04:55:11;;;;;;;5.78;2.53;;;31.10;99.90;;;;;;5058521;28;20021;-68
2023/01/26 04:57:38;;;;;;;4.28;2.10;;;31.10;99.90;;;;;;5061459;28;20021;-69
2023/01/26 05:00:07;;;;;;;3.28;2.08;;;31.30;99.90;;;;;;5062463;28;20048;-69
2023/01/26 05:02:34;;;;;;;5.13;2.17;;;31.40;99.90;;;;;;5060425;28;20035;-64
2023/01/26 05:05:00;;;;;;;8.65;3.03;;;31.70;99.90;;;;;;5061432;28;20029;-68
2023/01/26 05:07:27;;;;;;;5.57;2.92;;;32.00;99.90;;;;;;5055175;28;20079;-64
2023/01/26 05:09:54;;;;;;;3.80;2.90;;;32.30;99.90;;;;;;5061909;28;20396;-70
2023/01/26 05:12:33;;;;;;;5.15;3.20;;;32.90;99.90;;;;;;5059819;28;20025;-64
2023/01/26 05:15:00;;;;;;;5.70;3.95;;;34.20;99.90;;;;;;5061759;28;20114;-64
2023/01/26 05:17:27;;;;;;;6.75;3.78;;;35.10;99.50;;;;;;5059063;28;20052;-69
2023/01/26 05:19:54;;;;;;;4.90;3.47;;;34.60;97.80;;;;;;5061199;28;20029;-69
2023/01/26 05:22:21;;;;;;;4.32;3.85;;;34.10;94.20;;;;;;5059383;28;20048;-64
2023/01/26 05:24:48;;;;;;;3.70;3.25;;;33.90;93.80;;;;;;5062605;28;20024;-64
2023/01/26 05:27:21;;;;;;;3.50;3.13;;;34.00;92.40;;;;;;5059780;28;20040;-64
2023/01/26 05:29:49;;;;;;;5.00;3.30;;;33.80;93.30;;;;;;5056142;28;20028;-64
2023/01/26 05:32:16;;;;;;;4.95;3.13;;;33.60;93.40;;;;;;5055981;28;20025;-63
2023/01/26 05:34:43;;;;;;;3.50;3.20;;;34.10;93.00;;;;;;5052253;28;20639;-65
2023/01/26 05:37:10;;;;;;;5.75;2.80;;;34.00;94.50;;;;;;5058886;28;20556;-65
2023/01/26 05:39:37;;;;;;;3.85;3.15;;;33.80;93.00;;;;;;5061856;28;20452;-65
2023/01/26 05:42:04;;;;;;;3.25;2.72;;;33.40;92.30;;;;;;5059647;28;20117;-64
2023/01/26 05:44:31;;;;;;;4.15;3.40;;;33.50;92.60;;;;;;5061002;28;20112;-66
2023/01/26 05:46:58;;;;;;;5.57;3.30;;;33.30;93.40;;;;;;5059440;28;20036;-63
2023/01/26 05:49:25;;;;;;;3.75;2.90;;;33.10;93.40;;;;;;5060639;28;20130;-63
2023/01/26 05:51:51;;;;;;;3.97;3.13;;;32.90;93.50;;;;;;5056341;28;20027;-65
2023/01/26 05:54:18;;;;;;;5.28;2.78;;;32.70;92.00;;;;;;5060332;28;20071;-63
2023/01/26 05:56:45;;;;;;;4.78;2.67;;;32.90;92.50;;;;;;5053192;28;20021;-66
2023/01/26 05:59:12;;;;;;;3.65;2.35;;;33.10;91.40;;;;;;5057733;28;20041;-66
2023/01/26 06:01:39;;;;;;;3.00;2.60;;;33.30;91.30;;;;;;5061785;28;20025;-65
2023/01/26 06:04:07;;;;;;;3.55;2.80;;;33.60;91.20;;;;;;5061690;28;20024;-65
2023/01/26 06:06:33;;;;;;;3.72;2.25;;;33.50;90.80;;;;;;5056082;28;20030;-66
2023/01/26 06:09:09;;;;;;;3.28;2.20;;;33.60;89.40;;;;;;5059841;28;20336;-64
2023/01/26 06:11:36;;;;;;;2.55;2.08;;;33.90;90.00;;;;;;5053359;28;20024;-64
2023/01/26 06:14:03;;;;;;;4.47;2.65;;;35.20;89.10;;;;;;5056862;28;20103;-65
2023/01/26 06:16:30;;;;;;;3.95;2.42;;;36.10;86.60;;;;;;5056330;28;20039;-62
2023/01/26 06:18:57;;;;;;;4.88;2.50;;;35.90;83.30;;;;;;5058338;28;20052;-66
2023/01/26 06:21:24;;;;;;;3.17;2.72;;;35.10;85.00;;;;;;5059128;28;20048;-70
2023/01/26 06:23:51;;;;;;;4.93;3.10;;;34.50;87.20;;;;;;5058965;28;20720;-64
2023/01/26 06:26:18;;;;;;;3.13;2.60;;;33.90;88.50;;;;;;5055383;28;20072;-65
2023/01/26 06:28:44;;;;;;;4.20;2.45;;;33.50;87.90;;;;;;5060529;28;20489;-62
2023/01/26 06:31:11;;;;;;;4.95;2.80;;;33.10;86.10;;;;;;5038867;28;20339;-67
2023/01/26 06:33:38;;;;;;;6.03;2.65;;;32.90;85.30;;;;;;5060774;28;20437;-63
2023/01/26 06:36:11;;;;;;;4.30;2.58;;;32.80;85.90;;;;;;5058399;28;20040;-67
2023/01/26 06:38:39;;;;;;;2.83;2.25;;;32.90;86.00;;;;;;5057647;28;20024;-64
2023/01/26 06:41:08;;;;;;;3.25;2.30;;;34.20;85.80;;;;;;5059536;28;20032;-67
2023/01/26 06:43:36;;;;;;;5.78;2.97;;;34.90;82.40;;;;;;5058040;28;20036;-67
2023/01/26 06:46:05;;;;;;;2.58;2.38;;;35.40;81.20;;;;;;5059936;28;20031;-70
2023/01/26 06:48:34;;;;;;;4.53;2.50;;;35.50;81.00;;;;;;5058481;28;20052;-62
2023/01/26 06:51:18;;;;;;;2.95;2.03;;;35.30;82.30;;;;;;5055574;28;20051;-64
2023/01/26 06:53:56;;;;;;;5.30;2.40;;;34.80;82.30;;;;;;5057479;28;20029;-68
2023/01/26 06:56:24;;;;;;;3.10;2.42;;;34.60;80.40;;;;;;5053420;28;20043;-67
2023/01/26 06:58:51;;;;;;;3.40;2.13;;;34.60;78.20;;;;;;5058191;28;20070;-66
2023/01/26 07:01:23;;;;;;;3.22;2.50;;;34.40;79.90;;;;;;5056084;28;20033;-64
2023/01/26 07:03:52;;;;;;;4.43;2.92;;;33.90;80.20;;;;;;5058900;28;20040;-63
2023/01/26 07:06:19;;;;;;;4.00;2.45;;;33.40;81.50;;;;;;5055288;28;20051;-66
2023/01/26 07:08:46;;;;;;;4.63;2.95;;;33.00;84.40;;;;;;5040254;28;20465;-69
2023/01/26 07:11:14;;;;;;;5.57;3.03;;;32.70;84.70;;;;;;5055249;28;20519;-63
2023/01/26 07:13:42;;;;;;;5.13;2.90;;;32.40;86.00;;;;;;5060204;28;20028;-68
2023/01/26 07:16:12;;;;;;;3.55;3.25;;;32.10;87.50;;;;;;5062517;28;20024;-65
2023/01/26 07:18:42;;;;;;;4.40;2.97;;;32.00;87.80;;;;;;5052018;28;20028;-64
2023/01/26 07:21:15;;;;;;;5.07;2.78;;;31.80;88.70;;;;;;5061237;28;20122;-64
2023/01/26 07:23:42;;;;;;;3.95;3.03;;;31.70;89.60;;;;;;5059232;28;20485;-65
2023/01/26 07:26:08;;;;;;;4.47;2.78;;;31.70;90.10;;;;;;5065336;28;20431;-66
2023/01/26 07:28:35;;;;;;;3.28;2.67;;;31.60;90.00;;;;;;5059649;28;20021;-63
2023/01/26 07:31:04;;;;;;;5.45;3.30;;;31.60;89.00;;;;;;5062756;28;20070;-65
2023/01/26 07:33:32;;;;;;;6.07;3.85;;;31.60;90.10;;;;;;5062097;28;20020;-62
2023/01/26 07:36:02;;;;;;;4.93;3.13;;;31.60;90.70;;;;;;5060432;28;20032;-63
2023/01/26 07:38:30;;;;;;;4.88;3.50;;;31.40;91.20;;;;;;5056832;28;20314;-68
2023/01/26 07:40:57;;;;;;;4.75;3.42;;;31.20;90.40;;;;;;5051218;28;20110;-68
2023/01/26 07:43:24;;;;;;;5.80;3.17;;;31.10;90.00;;;;;;5061446;28;20562;-69
2023/01/26 07:45:53;;;;;;;5.13;3.13;;;30.90;90.20;;;;;;5061349;28;20020;-65
2023/01/26 07:48:22;;;;;;;3.70;3.13;;;30.70;89.00;;;;;;5058775;28;20029;-63
2023/01/26 07:50:50;;;;;;;3.55;3.00;;;30.50;90.40;;;;;;5058709;28;20147;-62
2023/01/26 07:53:21;;;;;;;3.70;3.35;;;30.50;90.00;;;;;;5059616;28;20035;-64
2023/01/26 07:55:48;;;;;;;5.13;3.65;;;30.30;90.40;;;;;;5060784;28;20032;-68
2023/01/26 07:58:17;;;;;;;3.60;3.20;;;30.20;90.60;;;;;;5062981;28;20048;-69
2023/01/26 08:00:46;;;;;;;5.97;3.38;;;30.10;91.10;;;;;;5064885;28;20027;-65
2023/01/26 08:03:13;;;;;;;3.45;2.85;;;30.10;91.60;;;;;;5064119;28;20126;-64
2023/01/26 08:05:42;;;;;;;4.22;3.35;;;30.20;92.40;;;;;;5062472;28;20028;-67
2023/01/26 08:08:08;;;;;;;6.35;4.63;;;30.30;92.90;;;;;;5059101;28;20221;-70
2023/01/26 08:10:35;;;;;;;5.72;3.67;;;30.20;93.40;;;;;;5041369;28;20090;-65
2023/01/26 08:13:05;;;;;;;5.82;4.43;;;30.10;95.60;;;;;;5061614;28;20027;-64
2023/01/26 08:15:33;;;;;;;4.53;4.03;;;30.00;97.10;;;;;;5044790;28;20024;-69
2023/01/26 08:18:02;;;;;;;5.97;5.10;;;30.00;98.50;;;;;;5063241;28;20054;-71
2023/01/26 08:20:30;;;;;;;5.53;4.90;;;29.90;96.80;;;;;;5064448;28;20109;-70
2023/01/26 08:22:57;;;;;;;5.43;4.80;;;29.70;98.00;;;;;;5063181;28;20021;-67
2023/01/26 08:25:23;;;;;;;6.30;4.90;;;29.50;98.20;;;;;;5063719;28;20024;-70
2023/01/26 08:27:50;;;;;;;5.68;4.57;;;29.40;97.80;;;;;;5064395;28;20052;-67
2023/01/26 08:30:17;;;;;;;7.25;4.75;;;29.20;97.30;;;;;;5062783;28;20051;-67
2023/01/26 08:32:47;;;;;;;6.25;4.55;;;29.10;96.80;;;;;;5060252;28;20032;-70
2023/01/26 08:35:14;;;;;;;5.13;4.03;;;29.00;96.90;;;;;;5060744;28;20471;-64
2023/01/26 08:37:41;;;;;;;7.68;4.18;;;28.80;96.80;;;;;;5061662;28;20025;-69
2023/01/26 08:40:09;;;;;;;6.13;4.38;;;28.70;97.20;;;;;;5061671;28;20070;-67
2023/01/26 08:42:36;;;;;;;6.78;4.32;;;28.70;97.60;;;;;;5059297;28;20035;-65
2023/01/26 08:45:03;;;;;;;6.07;4.15;;;28.60;97.30;;;;;;5060838;28;20433;-65
2023/01/26 08:47:29;;;;;;;8.02;4.43;;;28.40;97.70;;;;;;5061190;28;20029;-69
2023/01/26 08:49:56;;;;;;;5.82;4.55;;;28.30;97.90;;;;;;5059886;28;20383;-68
2023/01/26 08:52:23;;;;;;;5.88;4.45;;;28.10;97.40;;;;;;5057439;28;20024;-69
2023/01/26 08:54:50;;;;;;;6.32;4.38;;;27.90;97.90;;;;;;5058207;28;20020;-71
2023/01/26 08:57:17;;;;;;;6.85;4.55;;;27.80;97.60;;;;;;5059830;28;20091;-67
2023/01/26 08:59:44;;;;;;;7.47;4.35;;;27.60;98.00;;;;;;5058316;28;20029;-64
2023/01/26 09:02:11;;;;;;;5.05;4.13;;;27.50;98.40;;;;;;5055029;28;20029;-65
2023/01/26 09:04:39;;;;;;;5.22;4.63;;;27.20;98.90;;;;;;5050350;28;20025;-68
2023/01/26 09:07:06;;;;;;;5.60;4.38;;;27.10;99.00;;;;;;5058989;28;20406;-68
2023/01/26 09:09:32;;;;;;;8.23;4.82;;;26.90;99.30;;;;;;5053912;28;20370;-69
2023/01/26 09:11:59;;;;;;;6.38;4.60;;;26.70;98.90;;;;;;5058908;28;20029;-68
2023/01/26 09:14:27;;;;;;;8.35;4.75;;;26.60;98.90;;;;;;5059919;28;20032;-65
2023/01/26 09:16:54;;;;;;;6.07;4.82;;;26.40;99.40;;;;;;5061064;28;20086;-69
2023/01/26 09:19:21;;;;;;;8.93;5.10;;;26.30;99.90;;;;;;5058523;28;20024;-63
2023/01/26 09:21:52;;;;;;;9.77;5.07;;;26.20;99.90;;;;;;5058535;28;20482;-63
2023/01/26 09:24:21;;;;;;;7.00;5.30;;;25.90;99.90;;;;;;5059301;28;20547;-63
2023/01/26 09:26:48;;;;;;;8.35;5.60;;;25.80;99.90;;;;;;5060926;28;20054;-64
2023/01/26 09:29:19;;;;;;;10.15;5.32;;;25.70;99.90;;;;;;5061750;28;20029;-65
2023/01/26 09:31:46;;;;;;;9.07;5.53;;;25.60;99.90;;;;;;5041411;28;20571;-66
2023/01/26 09:34:15;;;;;;;7.35;4.85;;;25.50;99.90;;;;;;5061154;28;20024;-66
2023/01/26 09:36:42;;;;;;;12.25;4.93;;;25.40;99.90;;;;;;5061916;28;20501;-62
2023/01/26 09:39:09;;;;;;;7.55;4.80;;;25.30;99.90;;;;;;5042807;28;20031;-63
2023/01/26 09:42:11;;;;;;;7.68;5.10;;;25.20;99.90;;;;;;5055732;28;20753;-65
2023/01/26 09:45:02;;;;;;;6.88;4.82;;;25.20;99.90;;;;;;5058758;28;20029;-67
2023/01/26 09:47:54;;;;;;;8.52;4.60;;;25.20;99.90;;;;;;5056492;28;20032;-65
2023/01/26 09:50:39;;;;;;;9.55;5.00;;;25.20;99.90;;;;;;5048859;28;20563;-63
2023/01/26 09:53:16;;;;;;;8.88;4.78;;;25.10;99.90;;;;;;5064586;28;20039;-64
2023/01/26 09:55:45;;;;;;;8.93;4.68;;;25.00;99.90;;;;;;5049741;28;20054;-64
2023/01/26 09:58:26;;;;;;;10.88;4.70;;;25.00;99.90;;;;;;5062938;28;20034;-63
2023/01/26 10:00:59;;;;;;;8.45;4.10;;;25.00;99.90;;;;;;5063527;28;20481;-69
2023/01/26 10:03:30;;;;;;;;;;;24.90;99.90;;;;;;5063333;28;20035;-65
2023/01/26 10:06:03;;;;;;;9.80;5.38;;;24.90;99.90;;;;;;5059470;28;19916;-63
2023/01/26 10:08:30;;;;;;;9.25;4.93;;;24.80;99.90;;;;;;5061789;28;20036;-67
2023/01/26 10:11:07;;;;;;;9.35;4.82;;;24.80;99.90;;;;;;5062506;28;20566;-68
2023/01/26 10:13:34;;;;;;;20.45;6.50;;;24.70;99.90;;;;;;5062130;28;20028;-65
2023/01/26 10:16:09;;;;;;;16.83;7.35;;;24.70;99.90;;;;;;5056578;28;20056;-68
2023/01/26 10:18:48;;;;;;;17.70;7.25;;;24.60;99.90;;;;;;5063280;28;20017;-67
2023/01/26 10:21:18;;;;;;;12.30;7.15;;;24.30;99.90;;;;;;5122881;22;20055;-71
2023/01/26 10:23:48;;;;;;;17.05;7.55;;;23.90;99.90;;;;;;5090527;27;20020;-68
2023/01/26 10:26:20;;;;;;;15.95;8.00;;;23.70;99.90;;;;;;5094921;27;20028;-67
2023/01/26 10:28:50;;;;;;;10.30;7.75;;;23.40;99.90;;;;;;5091002;27;20055;-70
2023/01/26 10:31:17;;;;;;;18.30;9.10;;;23.20;99.90;;;;;;5097742;27;20028;-65
2023/01/26 10:34:11;;;;;;;18.08;9.48;;;23.00;99.90;;;;;;5079549;27;20028;-69
2023/01/26 10:36:39;;;;;;;20.48;11.13;;;22.80;99.90;;;;;;5075906;28;20441;-66
2023/01/26 10:39:08;;;;;;;19.95;9.75;;;22.60;99.90;;;;;;5102300;27;20129;-68
2023/01/26 10:41:38;;;;;;;15.23;9.63;;;22.50;99.90;;;;;;5098792;27;20051;-67
2023/01/26 10:44:21;;;;;;;11.20;8.27;;;22.40;99.90;;;;;;5108559;27;20024;-69
2023/01/26 10:47:00;;;;;;;;;;;22.50;99.90;;;;;;5111410;27;20028;-70
2023/01/26 10:49:27;;;;;;;19.38;10.18;;;22.40;99.90;;;;;;5081107;28;19923;-63
2023/01/26 10:52:20;;;;;;;15.35;10.35;;;22.30;99.90;;;;;;5098433;27;20555;-67
2023/01/26 10:54:48;;;;;;;17.65;10.85;;;22.40;99.90;;;;;;5102495;27;20011;-62
2023/01/26 10:57:31;;;;;;;18.88;11.07;;;22.40;99.90;;;;;;5100492;27;20027;-67
2023/01/26 10:59:59;;;;;;;;;;;22.30;99.90;;;;;;5104263;27;20759;-68
2023/01/26 11:02:27;;;;;;;19.42;10.45;;;22.30;99.90;;;;;;5103334;27;19911;-68
2023/01/26 11:05:17;;;;;;;23.65;11.57;;;22.30;99.90;;;;;;5102882;27;20046;-63
2023/01/26 11:07:47;;;;;;;17.65;11.10;;;22.30;99.90;;;;;;5103787;27;20030;-70
2023/01/26 11:10:24;;;;;;;17.75;9.98;;;22.30;99.90;;;;;;5097477;27;20542;-64
2023/01/26 11:13:06;;;;;;;19.92;11.52;;;22.30;99.90;;;;;;5099878;27;20020;-62
2023/01/26 11:15:39;;;;;;;20.10;11.18;;;22.30;99.90;;;;;;5092430;27;20024;-62
2023/01/26 11:18:41;;;;;;;15.85;10.30;;;22.30;99.90;;;;;;5101658;28;20092;-64
2023/01/26 11:21:26;;;;;;;14.35;10.85;;;22.20;99.90;;;;;;5103900;27;20126;-68
2023/01/26 11:24:30;;;;;;;24.33;12.45;;;22.20;99.90;;;;;;5105984;27;20034;-64
2023/01/26 11:26:56;;;;;;;21.58;12.48;;;22.30;99.90;;;;;;5098077;28;20028;-64
2023/01/26 11:29:26;;;;;;;18.52;12.32;;;22.40;99.90;;;;;;5101417;28;20080;-64
2023/01/26 11:32:11;;;;;;;22.67;12.25;;;22.30;99.90;;;;;;5105780;27;20466;-62
2023/01/26 11:34:47;;;;;;;24.30;12.35;;;22.40;99.90;;;;;;5103792;28;20047;-64
2023/01/26 11:37:32;;;;;;;22.88;11.63;;;22.40;99.90;;;;;;5103509;28;20032;-64
2023/01/26 11:40:09;;;;;;;18.45;11.27;;;22.40;99.90;;;;;;5107965;27;20066;-67
2023/01/26 11:42:51;;;;;;;22.02;12.82;;;22.40;99.90;;;;;;5106719;28;20118;-69
2023/01/26 11:45:46;;;;;;;18.73;11.80;;;22.40;99.90;;;;;;5096034;28;20480;-62
2023/01/26 11:48:13;;;;;;;23.05;12.88;;;22.40;99.90;;;;;;5105524;28;20024;-63
2023/01/26 11:50:52;;;;;;;21.52;13.85;;;22.40;99.90;;;;;;5107111;28;20019;-64
2023/01/26 11:53:54;;;;;;;19.65;11.77;;;22.40;99.90;;;;;;5101492;28;20047;-61
2023/01/26 11:56:48;;;;;;;17.88;12.50;;;22.30;99.90;;;;;;5021126;28;20034;-66
2023/01/26 11:59:31;;;;;;;25.63;13.98;;;22.30;99.90;;;;;;5019753;28;20475;-62
2023/01/26 12:02:36;;;;;;;22.67;12.82;;;22.30;99.90;;;;;;5018865;28;20033;-68
2023/01/26 12:05:29;;;;;;;20.45;13.05;;;22.20;99.90;;;;;;5024199;28;20060;-68
2023/01/26 12:08:05;;;;;;;22.77;12.70;;;22.10;99.90;;;;;;5025192;28;20414;-64
2023/01/26 12:10:49;;;;;;;25.50;13.50;;;22.10;99.90;;;;;;5032458;28;20029;-72
2023/01/26 12:13:41;;;;;;;19.92;13.82;;;22.00;99.90;;;;;;5019482;28;20073;-70
2023/01/26 12:16:40;;;;;;;20.40;12.43;;;22.10;99.90;;;;;;5019934;28;20068;-65
2023/01/26 12:19:10;;;;;;;19.70;13.90;;;22.00;99.90;;;;;;4989682;28;20169;-70
2023/01/26 12:21:42;;;;;;;20.50;13.38;;;21.90;99.90;;;;;;4985030;28;20817;-63
2023/01/26 12:24:32;;;;;;;18.70;13.23;;;21.90;99.90;;;;;;4978304;28;20097;-70
2023/01/26 12:27:04;;;;;;;22.08;13.05;;;22.00;99.90;;;;;;4975969;28;20502;-68
2023/01/26 12:29:45;;;;;;;19.02;12.05;;;21.90;99.90;;;;;;4974611;28;20038;-67
2023/01/26 12:32:15;;;;;;;17.27;13.27;;;21.90;99.90;;;;;;4983305;28;20082;-69
2023/01/26 12:34:42;;;;;;;24.63;16.13;;;21.90;99.90;;;;;;5032259;28;20533;-67
2023/01/26 12:37:36;;;;;;;24.27;15.30;;;21.80;99.90;;;;;;5034428;28;20090;-69
2023/01/26 12:40:48;;;;;;;16.60;12.85;;;21.70;99.90;;;;;;5023888;28;20198;-69
2023/01/26 12:43:38;;;;;;;18.65;13.60;;;21.60;99.90;;;;;;5021069;28;20115;-69
2023/01/26 12:46:09;;;;;;;15.73;13.13;;;21.60;99.90;;;;;;5022950;28;20105;-70
2023/01/26 12:48:44;;;;;;;17.17;13.73;;;21.50;99.90;;;;;;5027037;28;20033;-70
2023/01/26 12:51:27;;;;;;;19.23;14.32;;;21.50;99.90;;;;;;5030966;28;20036;-69
2023/01/26 12:53:59;;;;;;;;;;;21.50;99.90;;;;;;5031333;28;20037;-68
2023/01/26 12:56:42;;;;;;;19.38;11.18;;;21.50;99.90;;;;;;5045846;28;19961;-68
2023/01/26 12:59:20;;;;;;;;;;;21.50;99.90;;;;;;5058359;28;20654;-68
2023/01/26 13:01:47;;;;;;;12.75;9.02;;;21.40;99.90;;;;;;5054256;28;19948;-67
2023/01/26 13:04:18;;;;;;;12.90;8.98;;;21.40;99.90;;;;;;5054289;28;20083;-70
2023/01/26 13:07:20;;;;;;;11.32;8.15;;;21.40;99.90;;;;;;5051201;28;20036;-69
2023/01/26 13:10:19;;;;;;;9.95;8.18;;;21.30;99.90;;;;;;5055885;28;20056;-69
2023/01/26 13:12:59;;;;;;;12.60;7.68;;;21.30;99.90;;;;;;5059985;28;20024;-69
2023/01/26 13:15:30;;;;;;;9.18;8.20;;;21.30;99.90;;;;;;5058148;28;20036;-68
2023/01/26 13:18:03;;;;;;;10.07;7.22;;;21.40;99.90;;;;;;5083156;28;20032;-68
2023/01/26 13:20:46;;;;;;;13.82;8.07;;;21.40;99.90;;;;;;5106940;27;20041;-67
2023/01/26 13:23:41;;;;;;;7.63;6.38;;;21.40;99.90;;;;;;5097799;27;20042;-69
2023/01/26 13:26:31;;;;;;;8.30;6.50;;;21.40;99.90;;;;;;5085651;28;20049;-67
2023/01/26 13:29:36;;;;;;;9.15;6.72;;;21.50;99.90;;;;;;5093751;27;20016;-70
2023/01/26 13:32:09;;;;;;;7.88;6.50;;;21.50;99.90;;;;;;5095219;27;20035;-70
2023/01/26 13:34:45;;;;;;;9.25;6.93;;;21.60;99.90;;;;;;5087727;27;20420;-68
2023/01/26 13:37:21;;;;;;;8.15;6.25;;;21.60;99.90;;;;;;5094947;27;20045;-69
2023/01/26 13:40:02;;;;;;;8.68;6.38;;;21.70;99.90;;;;;;5095653;27;20031;-70
2023/01/26 13:42:43;;;;;;;7.28;6.15;;;21.70;99.90;;;;;;5100990;27;20111;-70
2023/01/26 13:45:28;;;;;;;8.55;6.32;;;21.70;99.90;;;;;;5100614;27;20034;-70
2023/01/26 13:47:57;;;;;;;6.93;5.72;;;21.80;99.90;;;;;;5099301;28;20020;-70
2023/01/26 13:50:32;;;;;;;7.18;6.47;;;21.80;99.90;;;;;;5081824;28;20055;-67
2023/01/26 13:52:59;;;;;;;8.25;5.75;;;21.80;99.90;;;;;;5096421;27;20020;-67
2023/01/26 13:55:32;;;;;;;8.30;6.00;;;21.90;99.90;;;;;;5098173;27;20468;-67
2023/01/26 13:58:18;;;;;;;13.57;6.47;;;21.90;99.90;;;;;;5095748;28;20020;-67